sensor_id;sensor_type;location;lat;lon;timestamp;temperature;humidity
4293;DHT22;2160;51.172;6.808;2023-06-26T04:03:12;24.90;99.90
4293;DHT22;2160;51.172;6.808;2023-06-26T04:05:41;24.90;99.90
4293;DHT22;2160;51.172;6.808;2023-06-26T04:08:08;24.90;99.90
4293;DHT22;2160;51.172;6.808;2023-06-26T04:10:35;25.00;99.90
4293;DHT22;2160;51.172;6.808;2023-06-26T04:13:02;24.90;99.90
4293;DHT22;2160;51.172;6.808;2023-06-26T04:15:31;25.00;99.90
4293;DHT22;2160;51.172;6.808;2023-06-26T04:17:58;24.90;99.90
4293;DHT22;2160;51.172;6.808;2023-06-26T04:20:27;24.90;99.90
4293;DHT22;2160;51.172;6.808;2023-06-26T04:22:54;25.00;99.90
4293;DHT22;2160;51.172;6.808;2023-06-26T04:25:22;25.00;99.90
4293;DHT22;2160;51.172;6.808;2023-06-26T04:27:48;24.90;99.90
4293;DHT22;2160;51.172;6.808;2023-06-26T04:30:16;25.00;99.90
4293;DHT22;2160;51.172;6.808;2023-06-26T04:32:43;24.90;99.90
4293;DHT22;2160;51.172;6.808;2023-06-26T04:35:10;24.90;99.90
4293;DHT22;2160;51.172;6.808;2023-06-26T04:37:38;24.90;99.90
4293;DHT22;2160;51.172;6.808;2023-06-26T04:40:06;24.90;99.90
4293;DHT22;2160;51.172;6.808;2023-06-26T04:42:35;24.90;99.90
4293;DHT22;2160;51.172;6.808;2023-06-26T04:45:02;24.90;99.90
4293;DHT22;2160;51.172;6.808;2023-06-26T04:47:29;25.00;99.90
4293;DHT22;2160;51.172;6.808;2023-06-26T04:49:56;25.00;99.90
4293;DHT22;2160;51.172;6.808;2023-06-26T04:52:23;25.00;99.90
4293;DHT22;2160;51.172;6.808;2023-06-26T04:54:51;25.00;99.90
4293;DHT22;2160;51.172;6.808;2023-06-26T04:57:18;25.00;99.90
4293;DHT22;2160;51.172;6.808;2023-06-26T04:59:45;25.10;99.90
4293;DHT22;2160;51.172;6.808;2023-06-26T05:02:12;25.00;99.90
4293;DHT22;2160;51.172;6.808;2023-06-26T05:04:40;25.00;99.90
4293;DHT22;2160;51.172;6.808;2023-06-26T05:07:08;25.10;99.90
4293;DHT22;2160;51.172;6.808;2023-06-26T05:09:35;25.10;99.90
4293;DHT22;2160;51.172;6.808;2023-06-26T05:12:04;25.10;99.90
4293;DHT22;2160;51.172;6.808;2023-06-26T05:14:31;25.10;99.90
4293;DHT22;2160;51.172;6.808;2023-06-26T05:16:58;25.00;99.90
4293;DHT22;2160;51.172;6.808;2023-06-26T05:19:25;25.00;99.90
4293;DHT22;2160;51.172;6.808;2023-06-26T05:21:52;24.90;99.90
4293;DHT22;2160;51.172;6.808;2023-06-26T05:24:21;24.80;99.90
4293;DHT22;2160;51.172;6.808;2023-06-26T05:26:49;24.90;99.90
4293;DHT22;2160;51.172;6.808;2023-06-26T05:29:18;24.90;99.90
4293;DHT22;2160;51.172;6.808;2023-06-26T05:31:47;24.90;99.90
4293;DHT22;2160;51.172;6.808;2023-06-26T05:34:17;24.90;99.90
4293;DHT22;2160;51.172;6.808;2023-06-26T05:36:48;25.00;99.90
4293;DHT22;2160;51.172;6.808;2023-06-26T05:39:17;24.90;99.90
4293;DHT22;2160;51.172;6.808;2023-06-26T05:41:45;24.90;99.90
4293;DHT22;2160;51.172;6.808;2023-06-26T05:44:12;24.80;99.90
4293;DHT22;2160;51.172;6.808;2023-06-26T05:46:40;24.70;99.90
4293;DHT22;2160;51.172;6.808;2023-06-26T05:49:07;24.50;99.90
4293;DHT22;2160;51.172;6.808;2023-06-26T05:51:35;24.50;99.90
4293;DHT22;2160;51.172;6.808;2023-06-26T05:54:02;24.60;99.90
4293;DHT22;2160;51.172;6.808;2023-06-26T05:56:30;24.50;99.90
4293;DHT22;2160;51.172;6.808;2023-06-26T05:58:57;24.60;99.90
4293;DHT22;2160;51.172;6.808;2023-06-26T06:01:25;24.70;99.90
4293;DHT22;2160;51.172;6.808;2023-06-26T06:03:53;24.80;99.90
4293;DHT22;2160;51.172;6.808;2023-06-26T06:06:20;24.80;99.90
4293;DHT22;2160;51.172;6.808;2023-06-26T06:08:47;24.70;99.90
4293;DHT22;2160;51.172;6.808;2023-06-26T06:11:14;24.70;99.90
4293;DHT22;2160;51.172;6.808;2023-06-26T06:13:41;24.80;99.90
4293;DHT22;2160;51.172;6.808;2023-06-26T06:16:08;25.00;99.90
4293;DHT22;2160;51.172;6.808;2023-06-26T06:18:35;24.90;99.90
4293;DHT22;2160;51.172;6.808;2023-06-26T06:21:03;24.80;99.90
4293;DHT22;2160;51.172;6.808;2023-06-26T06:23:30;24.90;99.90
4293;DHT22;2160;51.172;6.808;2023-06-26T06:25:57;24.90;99.90
4293;DHT22;2160;51.172;6.808;2023-06-26T06:28:24;24.90;99.90
4293;DHT22;2160;51.172;6.808;2023-06-26T06:30:52;24.90;99.90
4293;DHT22;2160;51.172;6.808;2023-06-26T06:33:19;24.90;99.90
4293;DHT22;2160;51.172;6.808;2023-06-26T06:35:46;24.90;99.90
4293;DHT22;2160;51.172;6.808;2023-06-26T06:38:15;24.90;99.90
4293;DHT22;2160;51.172;6.808;2023-06-26T06:40:42;24.80;99.90
4293;DHT22;2160;51.172;6.808;2023-06-26T06:43:09;24.80;99.90
4293;DHT22;2160;51.172;6.808;2023-06-26T06:45:36;24.80;99.90
4293;DHT22;2160;51.172;6.808;2023-06-26T06:48:03;24.80;99.90
4293;DHT22;2160;51.172;6.808;2023-06-26T06:50:30;24.80;99.90
4293;DHT22;2160;51.172;6.808;2023-06-26T06:52:58;24.70;99.90
4293;DHT22;2160;51.172;6.808;2023-06-26T06:55:26;24.70;99.90
4293;DHT22;2160;51.172;6.808;2023-06-26T06:57:53;24.80;99.90
4293;DHT22;2160;51.172;6.808;2023-06-26T07:00:20;24.70;99.90
4293;DHT22;2160;51.172;6.808;2023-06-26T07:02:47;24.70;99.90
4293;DHT22;2160;51.172;6.808;2023-06-26T07:05:16;24.70;99.90
4293;DHT22;2160;51.172;6.808;2023-06-26T07:07:43;24.90;99.90
4293;DHT22;2160;51.172;6.808;2023-06-26T07:10:13;24.80;99.90
4293;DHT22;2160;51.172;6.808;2023-06-26T07:12:41;25.00;99.90
4293;DHT22;2160;51.172;6.808;2023-06-26T07:15:10;24.90;99.90
4293;DHT22;2160;51.172;6.808;2023-06-26T07:17:37;24.90;99.90
4293;DHT22;2160;51.172;6.808;2023-06-26T07:20:06;24.80;99.90
4293;DHT22;2160;51.172;6.808;2023-06-26T07:22:34;24.80;99.90
4293;DHT22;2160;51.172;6.808;2023-06-26T07:25:01;24.80;99.90
4293;DHT22;2160;51.172;6.808;2023-06-26T07:27:29;24.80;99.90
4293;DHT22;2160;51.172;6.808;2023-06-26T07:29:58;25.00;99.90
4293;DHT22;2160;51.172;6.808;2023-06-26T07:32:25;24.90;99.90
4293;DHT22;2160;51.172;6.808;2023-06-26T07:34:52;25.10;99.90
4293;DHT22;2160;51.172;6.808;2023-06-26T07:37:19;25.20;99.90
4293;DHT22;2160;51.172;6.808;2023-06-26T07:39:46;25.30;99.90
4293;DHT22;2160;51.172;6.808;2023-06-26T07:42:13;25.40;99.90
4293;DHT22;2160;51.172;6.808;2023-06-26T07:44:41;25.50;99.90
4293;DHT22;2160;51.172;6.808;2023-06-26T07:47:10;25.40;99.90
4293;DHT22;2160;51.172;6.808;2023-06-26T07:49:37;25.40;99.90
4293;DHT22;2160;51.172;6.808;2023-06-26T07:52:06;25.40;99.90
4293;DHT22;2160;51.172;6.808;2023-06-26T07:54:33;25.40;99.90
4293;DHT22;2160;51.172;6.808;2023-06-26T07:57:01;25.30;99.90
4293;DHT22;2160;51.172;6.808;2023-06-26T07:59:29;25.30;99.90
4293;DHT22;2160;51.172;6.808;2023-06-26T08:01:57;25.10;99.90
4293;DHT22;2160;51.172;6.808;2023-06-26T08:04:28;25.20;99.90
4293;DHT22;2160;51.172;6.808;2023-06-26T08:06:58;25.30;99.90
4293;DHT22;2160;51.172;6.808;2023-06-26T08:09:27;25.40;99.90
4293;DHT22;2160;51.172;6.808;2023-06-26T08:11:54;25.30;99.90
4293;DHT22;2160;51.172;6.808;2023-06-26T08:14:21;25.40;99.90
4293;DHT22;2160;51.172;6.808;2023-06-26T08:16:49;25.40;99.90
4293;DHT22;2160;51.172;6.808;2023-06-26T08:19:17;25.40;99.90
4293;DHT22;2160;51.172;6.808;2023-06-26T08:21:46;25.50;99.90
4293;DHT22;2160;51.172;6.808;2023-06-26T08:24:13;25.50;99.90
4293;DHT22;2160;51.172;6.808;2023-06-26T08:26:42;25.40;99.90
4293;DHT22;2160;51.172;6.808;2023-06-26T08:29:09;25.40;99.90
4293;DHT22;2160;51.172;6.808;2023-06-26T08:31:36;25.40;99.90
4293;DHT22;2160;51.172;6.808;2023-06-26T08:34:03;25.50;99.90
4293;DHT22;2160;51.172;6.808;2023-06-26T08:36:30;25.40;99.90
4293;DHT22;2160;51.172;6.808;2023-06-26T08:39:00;25.40;99.90
4293;DHT22;2160;51.172;6.808;2023-06-26T08:41:27;25.30;99.90
4293;DHT22;2160;51.172;6.808;2023-06-26T08:43:54;25.40;99.90
4293;DHT22;2160;51.172;6.808;2023-06-26T08:46:21;25.40;99.90
4293;DHT22;2160;51.172;6.808;2023-06-26T08:48:55;25.10;99.90
4293;DHT22;2160;51.172;6.808;2023-06-26T08:51:25;25.20;99.90
4293;DHT22;2160;51.172;6.808;2023-06-26T08:53:57;25.40;99.90
4293;DHT22;2160;51.172;6.808;2023-06-26T08:56:28;25.60;99.90
4293;DHT22;2160;51.172;6.808;2023-06-26T08:58:58;25.60;99.90
4293;DHT22;2160;51.172;6.808;2023-06-26T09:01:25;25.60;99.90
4293;DHT22;2160;51.172;6.808;2023-06-26T09:03:52;25.50;99.90
4293;DHT22;2160;51.172;6.808;2023-06-26T09:06:19;25.50;99.90
4293;DHT22;2160;51.172;6.808;2023-06-26T09:08:46;25.50;99.90
4293;DHT22;2160;51.172;6.808;2023-06-26T09:11:13;25.50;99.90
4293;DHT22;2160;51.172;6.808;2023-06-26T09:13:42;25.50;99.90
4293;DHT22;2160;51.172;6.808;2023-06-26T09:16:10;25.50;99.90
4293;DHT22;2160;51.172;6.808;2023-06-26T09:18:37;25.60;99.90
4293;DHT22;2160;51.172;6.808;2023-06-26T09:21:08;25.60;99.90
4293;DHT22;2160;51.172;6.808;2023-06-26T09:23:35;25.70;99.90
4293;DHT22;2160;51.172;6.808;2023-06-26T09:26:03;25.70;99.90
4293;DHT22;2160;51.172;6.808;2023-06-26T09:28:31;25.80;99.90
4293;DHT22;2160;51.172;6.808;2023-06-26T09:31:03;25.90;99.90
4293;DHT22;2160;51.172;6.808;2023-06-26T09:33:34;26.00;99.90
4293;DHT22;2160;51.172;6.808;2023-06-26T09:36:05;25.90;99.90
4293;DHT22;2160;51.172;6.808;2023-06-26T09:38:35;25.90;99.90
4293;DHT22;2160;51.172;6.808;2023-06-26T09:41:02;25.80;99.90
4293;DHT22;2160;51.172;6.808;2023-06-26T09:43:29;25.70;99.90
4293;DHT22;2160;51.172;6.808;2023-06-26T09:45:56;25.70;99.90
4293;DHT22;2160;51.172;6.808;2023-06-26T09:48:26;25.60;99.90
4293;DHT22;2160;51.172;6.808;2023-06-26T09:50:55;25.80;99.90
4293;DHT22;2160;51.172;6.808;2023-06-26T09:53:22;26.00;99.90
4293;DHT22;2160;51.172;6.808;2023-06-26T09:55:49;26.10;99.90
4293;DHT22;2160;51.172;6.808;2023-06-26T09:58:16;26.10;99.90
4293;DHT22;2160;51.172;6.808;2023-06-26T10:00:44;26.10;99.90
4293;DHT22;2160;51.172;6.808;2023-06-26T10:03:11;25.90;99.90
4293;DHT22;2160;51.172;6.808;2023-06-26T10:05:40;25.90;99.90
4293;DHT22;2160;51.172;6.808;2023-06-26T10:08:08;26.00;99.90
4293;DHT22;2160;51.172;6.808;2023-06-26T10:10:37;26.10;99.90
4293;DHT22;2160;51.172;6.808;2023-06-26T10:13:10;26.20;99.90
4293;DHT22;2160;51.172;6.808;2023-06-26T10:15:38;26.10;99.90
4293;DHT22;2160;51.172;6.808;2023-06-26T10:18:07;26.10;99.90
4293;DHT22;2160;51.172;6.808;2023-06-26T10:20:34;26.20;99.90
4293;DHT22;2160;51.172;6.808;2023-06-26T10:23:05;26.30;99.90
4293;DHT22;2160;51.172;6.808;2023-06-26T10:25:37;26.30;99.90
4293;DHT22;2160;51.172;6.808;2023-06-26T10:28:08;26.20;99.90
4293;DHT22;2160;51.172;6.808;2023-06-26T10:30:37;26.30;99.90
4293;DHT22;2160;51.172;6.808;2023-06-26T10:33:06;26.30;99.90
4293;DHT22;2160;51.172;6.808;2023-06-26T10:35:42;26.30;99.90
4293;DHT22;2160;51.172;6.808;2023-06-26T10:38:10;26.30;99.90
4293;DHT22;2160;51.172;6.808;2023-06-26T10:40:41;26.20;99.90
4293;DHT22;2160;51.172;6.808;2023-06-26T10:43:09;26.20;99.90
4293;DHT22;2160;51.172;6.808;2023-06-26T10:45:37;26.10;99.90
4293;DHT22;2160;51.172;6.808;2023-06-26T10:48:09;26.10;99.90
4293;DHT22;2160;51.172;6.808;2023-06-26T10:50:36;26.20;99.90
4293;DHT22;2160;51.172;6.808;2023-06-26T10:53:14;26.30;99.90
4293;DHT22;2160;51.172;6.808;2023-06-26T10:55:49;26.60;99.90
4293;DHT22;2160;51.172;6.808;2023-06-26T10:58:30;26.70;99.90
4293;DHT22;2160;51.172;6.808;2023-06-26T11:01:22;26.50;97.90
4293;DHT22;2160;51.172;6.808;2023-06-26T11:04:01;26.20;98.90
4293;DHT22;2160;51.172;6.808;2023-06-26T11:06:29;26.40;99.70
4293;DHT22;2160;51.172;6.808;2023-06-26T11:09:06;26.60;99.10
4293;DHT22;2160;51.172;6.808;2023-06-26T11:12:01;26.50;97.40
4293;DHT22;2160;51.172;6.808;2023-06-26T11:14:32;26.30;96.60
4293;DHT22;2160;51.172;6.808;2023-06-26T11:17:02;26.10;95.90
4293;DHT22;2160;51.172;6.808;2023-06-26T11:19:29;26.20;96.10
4293;DHT22;2160;51.172;6.808;2023-06-26T11:22:04;26.50;97.80
4293;DHT22;2160;51.172;6.808;2023-06-26T11:24:33;26.40;92.60
4293;DHT22;2160;51.172;6.808;2023-06-26T11:27:05;26.20;91.40
4293;DHT22;2160;51.172;6.808;2023-06-26T11:29:36;26.10;90.90
4293;DHT22;2160;51.172;6.808;2023-06-26T11:32:05;26.30;91.00
4293;DHT22;2160;51.172;6.808;2023-06-26T11:34:37;26.50;91.10
4293;DHT22;2160;51.172;6.808;2023-06-26T11:37:09;26.70;91.60
4293;DHT22;2160;51.172;6.808;2023-06-26T11:39:43;27.10;90.50
4293;DHT22;2160;51.172;6.808;2023-06-26T11:42:11;27.10;90.00
4293;DHT22;2160;51.172;6.808;2023-06-26T11:44:49;27.40;89.80
4293;DHT22;2160;51.172;6.808;2023-06-26T11:47:20;27.50;89.50
4293;DHT22;2160;51.172;6.808;2023-06-26T11:49:49;27.60;90.30
4293;DHT22;2160;51.172;6.808;2023-06-26T11:52:18;27.70;89.70
4293;DHT22;2160;51.172;6.808;2023-06-26T11:54:47;27.70;87.10
4293;DHT22;2160;51.172;6.808;2023-06-26T11:57:14;27.60;86.90
4293;DHT22;2160;51.172;6.808;2023-06-26T11:59:43;27.40;85.60
4293;DHT22;2160;51.172;6.808;2023-06-26T12:02:11;27.20;87.40
4293;DHT22;2160;51.172;6.808;2023-06-26T12:04:41;27.10;90.10
4293;DHT22;2160;51.172;6.808;2023-06-26T12:07:10;27.10;87.30
4293;DHT22;2160;51.172;6.808;2023-06-26T12:09:42;27.00;86.70
4293;DHT22;2160;51.172;6.808;2023-06-26T12:12:14;27.10;87.70
4293;DHT22;2160;51.172;6.808;2023-06-26T12:14:42;27.20;87.70
4293;DHT22;2160;51.172;6.808;2023-06-26T12:17:24;27.30;85.40
4293;DHT22;2160;51.172;6.808;2023-06-26T12:19:51;27.50;85.80
4293;DHT22;2160;51.172;6.808;2023-06-26T12:22:19;27.60;87.00
4293;DHT22;2160;51.172;6.808;2023-06-26T12:24:47;27.40;82.90
4293;DHT22;2160;51.172;6.808;2023-06-26T12:27:17;27.00;83.60
4293;DHT22;2160;51.172;6.808;2023-06-26T12:29:51;26.80;84.70
4293;DHT22;2160;51.172;6.808;2023-06-26T12:32:19;26.80;85.10
4293;DHT22;2160;51.172;6.808;2023-06-26T12:34:48;26.70;83.80
4293;DHT22;2160;51.172;6.808;2023-06-26T12:37:16;26.70;81.40
4293;DHT22;2160;51.172;6.808;2023-06-26T12:39:48;26.70;81.80
4293;DHT22;2160;51.172;6.808;2023-06-26T12:42:19;26.70;79.50
4293;DHT22;2160;51.172;6.808;2023-06-26T12:44:46;26.70;79.90
4293;DHT22;2160;51.172;6.808;2023-06-26T12:47:15;26.60;77.80
4293;DHT22;2160;51.172;6.808;2023-06-26T12:49:43;26.50;77.10
4293;DHT22;2160;51.172;6.808;2023-06-26T12:52:12;26.60;77.50
4293;DHT22;2160;51.172;6.808;2023-06-26T12:54:40;26.70;80.70
4293;DHT22;2160;51.172;6.808;2023-06-26T12:57:07;26.90;75.60
4293;DHT22;2160;51.172;6.808;2023-06-26T12:59:36;26.80;76.60
4293;DHT22;2160;51.172;6.808;2023-06-26T13:02:04;26.90;74.80
4293;DHT22;2160;51.172;6.808;2023-06-26T13:04:31;26.80;77.50
4293;DHT22;2160;51.172;6.808;2023-06-26T13:06:58;26.90;75.50
4293;DHT22;2160;51.172;6.808;2023-06-26T13:09:26;27.00;73.00
4293;DHT22;2160;51.172;6.808;2023-06-26T13:11:55;27.00;72.70
4293;DHT22;2160;51.172;6.808;2023-06-26T13:14:23;26.90;72.00
4293;DHT22;2160;51.172;6.808;2023-06-26T13:16:53;26.70;72.50
4293;DHT22;2160;51.172;6.808;2023-06-26T13:19:20;26.90;74.00
4293;DHT22;2160;51.172;6.808;2023-06-26T13:21:47;27.00;69.60
4293;DHT22;2160;51.172;6.808;2023-06-26T13:24:14;27.10;72.40
4293;DHT22;2160;51.172;6.808;2023-06-26T13:26:41;27.30;73.20
4293;DHT22;2160;51.172;6.808;2023-06-26T13:29:08;27.30;72.40
4293;DHT22;2160;51.172;6.808;2023-06-26T13:31:35;27.30;70.10
4293;DHT22;2160;51.172;6.808;2023-06-26T13:34:04;27.40;69.80
4293;DHT22;2160;51.172;6.808;2023-06-26T13:36:31;27.30;66.80
4293;DHT22;2160;51.172;6.808;2023-06-26T13:39:00;27.20;69.30
4293;DHT22;2160;51.172;6.808;2023-06-26T13:41:27;27.20;66.90
4293;DHT22;2160;51.172;6.808;2023-06-26T13:43:54;27.30;66.40
4293;DHT22;2160;51.172;6.808;2023-06-26T13:46:21;27.40;63.50
4293;DHT22;2160;51.172;6.808;2023-06-26T13:48:48;27.30;63.40
4293;DHT22;2160;51.172;6.808;2023-06-26T13:51:16;27.10;61.60
4293;DHT22;2160;51.172;6.808;2023-06-26T13:53:43;26.90;65.40
4293;DHT22;2160;51.172;6.808;2023-06-26T13:56:10;26.80;67.70
4293;DHT22;2160;51.172;6.808;2023-06-26T13:58:45;26.90;69.50
4293;DHT22;2160;51.172;6.808;2023-06-26T14:01:12;27.00;70.60
4293;DHT22;2160;51.172;6.808;2023-06-26T14:03:40;27.00;65.20
4293;DHT22;2160;51.172;6.808;2023-06-26T14:06:07;27.00;63.00
4293;DHT22;2160;51.172;6.808;2023-06-26T14:08:35;27.10;63.20
4293;DHT22;2160;51.172;6.808;2023-06-26T14:11:02;27.20;61.30
4293;DHT22;2160;51.172;6.808;2023-06-26T14:13:29;27.30;63.00
4293;DHT22;2160;51.172;6.808;2023-06-26T14:15:56;27.30;61.90
4293;DHT22;2160;51.172;6.808;2023-06-26T14:18:23;27.40;62.00
4293;DHT22;2160;51.172;6.808;2023-06-26T14:20:50;27.40;62.20
4293;DHT22;2160;51.172;6.808;2023-06-26T14:23:19;27.50;60.00
4293;DHT22;2160;51.172;6.808;2023-06-26T14:25:47;27.70;59.70
4293;DHT22;2160;51.172;6.808;2023-06-26T14:28:14;27.80;59.40
4293;DHT22;2160;51.172;6.808;2023-06-26T14:30:41;27.80;58.50
4293;DHT22;2160;51.172;6.808;2023-06-26T14:33:11;28.40;62.20
4293;DHT22;2160;51.172;6.808;2023-06-26T14:35:38;29.10;60.60
4293;DHT22;2160;51.172;6.808;2023-06-26T14:38:05;29.60;59.40
4293;DHT22;2160;51.172;6.808;2023-06-26T14:40:32;29.70;57.70
4293;DHT22;2160;51.172;6.808;2023-06-26T14:43:00;29.90;58.30
4293;DHT22;2160;51.172;6.808;2023-06-26T14:45:27;30.50;56.90
4293;DHT22;2160;51.172;6.808;2023-06-26T14:47:54;31.00;56.10
4293;DHT22;2160;51.172;6.808;2023-06-26T14:50:21;31.40;56.30
4293;DHT22;2160;51.172;6.808;2023-06-26T14:52:48;31.70;54.50
4293;DHT22;2160;51.172;6.808;2023-06-26T14:55:15;32.10;55.30
4293;DHT22;2160;51.172;6.808;2023-06-26T14:57:42;32.10;53.10
4293;DHT22;2160;51.172;6.808;2023-06-26T15:00:13;32.30;52.40
4293;DHT22;2160;51.172;6.808;2023-06-26T15:02:40;32.00;50.80
4293;DHT22;2160;51.172;6.808;2023-06-26T15:05:07;31.60;49.30
4293;DHT22;2160;51.172;6.808;2023-06-26T15:07:34;31.20;50.50
4293;DHT22;2160;51.172;6.808;2023-06-26T15:10:02;31.10;51.90
4293;DHT22;2160;51.172;6.808;2023-06-26T15:12:29;30.90;49.90
4293;DHT22;2160;51.172;6.808;2023-06-26T15:14:56;30.80;49.70
4293;DHT22;2160;51.172;6.808;2023-06-26T15:17:24;30.60;50.20
4293;DHT22;2160;51.172;6.808;2023-06-26T15:19:51;29.80;49.40
4293;DHT22;2160;51.172;6.808;2023-06-26T15:22:18;29.20;49.40
4293;DHT22;2160;51.172;6.808;2023-06-26T15:24:45;28.60;48.80
4293;DHT22;2160;51.172;6.808;2023-06-26T15:27:12;28.30;49.30
4293;DHT22;2160;51.172;6.808;2023-06-26T15:29:39;27.80;49.80
4293;DHT22;2160;51.172;6.808;2023-06-26T15:32:07;27.50;50.90
4293;DHT22;2160;51.172;6.808;2023-06-26T15:34:36;27.20;51.10
4293;DHT22;2160;51.172;6.808;2023-06-26T15:37:03;27.10;52.00
4293;DHT22;2160;51.172;6.808;2023-06-26T15:39:30;27.00;52.60
4293;DHT22;2160;51.172;6.808;2023-06-26T15:41:57;27.10;53.40
4293;DHT22;2160;51.172;6.808;2023-06-26T15:44:25;27.30;53.00
4293;DHT22;2160;51.172;6.808;2023-06-26T15:46:54;27.90;53.80
4293;DHT22;2160;51.172;6.808;2023-06-26T15:49:21;28.10;52.10
4293;DHT22;2160;51.172;6.808;2023-06-26T15:51:50;28.10;52.20
4293;DHT22;2160;51.172;6.808;2023-06-26T15:54:17;28.10;53.60
4293;DHT22;2160;51.172;6.808;2023-06-26T15:56:44;28.40;52.10
4293;DHT22;2160;51.172;6.808;2023-06-26T15:59:12;29.10;50.00
4293;DHT22;2160;51.172;6.808;2023-06-26T16:01:41;29.80;49.70
4293;DHT22;2160;51.172;6.808;2023-06-26T16:04:09;30.80;47.70
4293;DHT22;2160;51.172;6.808;2023-06-26T16:06:36;31.50;47.80
4293;DHT22;2160;51.172;6.808;2023-06-26T16:09:06;32.20;46.50
4293;DHT22;2160;51.172;6.808;2023-06-26T16:11:34;32.10;45.20
4293;DHT22;2160;51.172;6.808;2023-06-26T16:14:01;31.40;43.50
4293;DHT22;2160;51.172;6.808;2023-06-26T16:16:28;31.00;45.10
4293;DHT22;2160;51.172;6.808;2023-06-26T16:18:54;30.90;44.40
4293;DHT22;2160;51.172;6.808;2023-06-26T16:21:21;30.70;45.30
4293;DHT22;2160;51.172;6.808;2023-06-26T16:23:48;31.20;46.00
4293;DHT22;2160;51.172;6.808;2023-06-26T16:26:16;31.50;44.50
4293;DHT22;2160;51.172;6.808;2023-06-26T16:28:44;31.30;43.70
4293;DHT22;2160;51.172;6.808;2023-06-26T16:31:13;30.90;44.40
4293;DHT22;2160;51.172;6.808;2023-06-26T16:33:40;30.50;45.10
4293;DHT22;2160;51.172;6.808;2023-06-26T16:36:07;30.00;45.50
4293;DHT22;2160;51.172;6.808;2023-06-26T16:38:34;29.70;46.70
4293;DHT22;2160;51.172;6.808;2023-06-26T16:41:03;29.60;46.90
4293;DHT22;2160;51.172;6.808;2023-06-26T16:43:31;29.00;46.80
4293;DHT22;2160;51.172;6.808;2023-06-26T16:45:58;28.30;46.10
4293;DHT22;2160;51.172;6.808;2023-06-26T16:48:25;28.00;48.00
4293;DHT22;2160;51.172;6.808;2023-06-26T16:50:52;27.60;48.20
4293;DHT22;2160;51.172;6.808;2023-06-26T16:53:19;27.20;49.30
4293;DHT22;2160;51.172;6.808;2023-06-26T16:55:46;26.90;49.90
4293;DHT22;2160;51.172;6.808;2023-06-26T16:58:13;26.50;49.80
4293;DHT22;2160;51.172;6.808;2023-06-26T17:00:42;26.30;51.10
4293;DHT22;2160;51.172;6.808;2023-06-26T17:03:09;26.20;52.00
4293;DHT22;2160;51.172;6.808;2023-06-26T17:05:36;26.10;52.20
4293;DHT22;2160;51.172;6.808;2023-06-26T17:08:03;25.90;52.10
4293;DHT22;2160;51.172;6.808;2023-06-26T17:10:32;25.70;51.60
4293;DHT22;2160;51.172;6.808;2023-06-26T17:12:59;25.80;52.50
4293;DHT22;2160;51.172;6.808;2023-06-26T17:15:25;25.60;52.10
4293;DHT22;2160;51.172;6.808;2023-06-26T17:17:54;25.40;52.70
4293;DHT22;2160;51.172;6.808;2023-06-26T17:20:21;25.20;53.50
4293;DHT22;2160;51.172;6.808;2023-06-26T17:22:48;25.20;53.40
4293;DHT22;2160;51.172;6.808;2023-06-26T17:25:15;25.10;54.10
4293;DHT22;2160;51.172;6.808;2023-06-26T17:27:42;25.00;55.00
4293;DHT22;2160;51.172;6.808;2023-06-26T17:30:09;25.20;55.60
4293;DHT22;2160;51.172;6.808;2023-06-26T17:32:37;25.10;54.60
4293;DHT22;2160;51.172;6.808;2023-06-26T17:35:06;25.00;55.10
4293;DHT22;2160;51.172;6.808;2023-06-26T17:37:33;25.00;54.90
4293;DHT22;2160;51.172;6.808;2023-06-26T17:40:00;25.00;55.40
4293;DHT22;2160;51.172;6.808;2023-06-26T17:42:29;25.00;55.80
4293;DHT22;2160;51.172;6.808;2023-06-26T17:44:56;25.00;55.70
4293;DHT22;2160;51.172;6.808;2023-06-26T17:47:24;24.90;55.80
4293;DHT22;2160;51.172;6.808;2023-06-26T17:49:53;24.90;55.20
4293;DHT22;2160;51.172;6.808;2023-06-26T17:52:21;25.10;55.10
4293;DHT22;2160;51.172;6.808;2023-06-26T17:54:48;25.20;55.30
4293;DHT22;2160;51.172;6.808;2023-06-26T17:57:15;25.30;55.90
4293;DHT22;2160;51.172;6.808;2023-06-26T17:59:42;25.30;55.40
4293;DHT22;2160;51.172;6.808;2023-06-26T18:02:09;25.20;56.30
4293;DHT22;2160;51.172;6.808;2023-06-26T18:04:38;25.20;55.70
4293;DHT22;2160;51.172;6.808;2023-06-26T18:07:05;25.20;56.00
4293;DHT22;2160;51.172;6.808;2023-06-26T18:09:33;25.00;56.10
4293;DHT22;2160;51.172;6.808;2023-06-26T18:12:00;24.90;55.40
4293;DHT22;2160;51.172;6.808;2023-06-26T18:14:27;24.70;56.40
4293;DHT22;2160;51.172;6.808;2023-06-26T18:16:54;24.70;55.40
4293;DHT22;2160;51.172;6.808;2023-06-26T18:19:21;24.70;55.60
4293;DHT22;2160;51.172;6.808;2023-06-26T18:21:48;24.70;56.70
4293;DHT22;2160;51.172;6.808;2023-06-26T18:24:15;24.90;57.30
4293;DHT22;2160;51.172;6.808;2023-06-26T18:26:43;24.90;57.40
4293;DHT22;2160;51.172;6.808;2023-06-26T18:29:10;25.00;57.80
4293;DHT22;2160;51.172;6.808;2023-06-26T18:31:37;25.00;57.80
4293;DHT22;2160;51.172;6.808;2023-06-26T18:34:04;25.00;56.00
4293;DHT22;2160;51.172;6.808;2023-06-26T18:36:31;25.00;57.50
4293;DHT22;2160;51.172;6.808;2023-06-26T18:38:59;24.90;56.00
4293;DHT22;2160;51.172;6.808;2023-06-26T18:41:26;24.80;57.60
4293;DHT22;2160;51.172;6.808;2023-06-26T18:43:55;24.70;56.80
4293;DHT22;2160;51.172;6.808;2023-06-26T18:46:22;24.60;55.80
4293;DHT22;2160;51.172;6.808;2023-06-26T18:48:59;24.40;56.90
4293;DHT22;2160;51.172;6.808;2023-06-26T18:51:26;24.40;57.20
4293;DHT22;2160;51.172;6.808;2023-06-26T18:53:55;24.30;56.40
4293;DHT22;2160;51.172;6.808;2023-06-26T18:56:22;24.10;56.70
4293;DHT22;2160;51.172;6.808;2023-06-26T18:58:49;23.90;56.80
4293;DHT22;2160;51.172;6.808;2023-06-26T19:01:19;23.90;57.80
4293;DHT22;2160;51.172;6.808;2023-06-26T19:03:46;23.90;57.40
4293;DHT22;2160;51.172;6.808;2023-06-26T19:06:14;23.80;57.40
4293;DHT22;2160;51.172;6.808;2023-06-26T19:08:41;23.80;58.40
4293;DHT22;2160;51.172;6.808;2023-06-26T19:11:08;23.80;59.30
4293;DHT22;2160;51.172;6.808;2023-06-26T19:13:35;23.80;59.20
4293;DHT22;2160;51.172;6.808;2023-06-26T19:16:02;23.80;59.30
4293;DHT22;2160;51.172;6.808;2023-06-26T19:18:31;23.90;59.40
4293;DHT22;2160;51.172;6.808;2023-06-26T19:20:58;23.80;59.80
4293;DHT22;2160;51.172;6.808;2023-06-26T19:23:25;23.80;59.70
4293;DHT22;2160;51.172;6.808;2023-06-26T19:25:52;23.70;59.70
4293;DHT22;2160;51.172;6.808;2023-06-26T19:28:19;23.70;60.10
4293;DHT22;2160;51.172;6.808;2023-06-26T19:30:46;23.50;61.70
4293;DHT22;2160;51.172;6.808;2023-06-26T19:33:13;23.50;60.50
4293;DHT22;2160;51.172;6.808;2023-06-26T19:35:41;23.60;60.40
4293;DHT22;2160;51.172;6.808;2023-06-26T19:38:08;23.60;61.10
4293;DHT22;2160;51.172;6.808;2023-06-26T19:40:36;23.60;61.90
4293;DHT22;2160;51.172;6.808;2023-06-26T19:43:03;23.60;63.70
4293;DHT22;2160;51.172;6.808;2023-06-26T19:45:30;23.40;63.30
4293;DHT22;2160;51.172;6.808;2023-06-26T19:47:57;23.20;63.50
4293;DHT22;2160;51.172;6.808;2023-06-26T19:50:24;23.20;64.20
4293;DHT22;2160;51.172;6.808;2023-06-26T19:52:53;23.10;64.70
4293;DHT22;2160;51.172;6.808;2023-06-26T19:55:20;23.10;65.60
4293;DHT22;2160;51.172;6.808;2023-06-26T19:57:47;23.10;65.20
4293;DHT22;2160;51.172;6.808;2023-06-26T20:00:15;23.00;65.50
4293;DHT22;2160;51.172;6.808;2023-06-26T20:02:43;22.90;66.10
4293;DHT22;2160;51.172;6.808;2023-06-26T20:05:10;22.80;67.10
4293;DHT22;2160;51.172;6.808;2023-06-26T20:07:37;22.80;66.60
4293;DHT22;2160;51.172;6.808;2023-06-26T20:10:07;22.70;67.30